createdAt,value
2022-11-06T00:00:18.613Z,9.88
2022-11-06T00:01:18.589Z,9.87
2022-11-06T00:02:20.763Z,9.88
2022-11-06T00:03:18.620Z,9.87
2022-11-06T00:04:18.552Z,9.88
2022-11-06T00:05:18.544Z,9.87
2022-11-06T00:06:18.544Z,9.88
2022-11-06T00:07:18.543Z,9.88
2022-11-06T00:08:18.514Z,9.87
2022-11-06T00:09:18.483Z,9.88
2022-11-06T00:10:18.475Z,9.90
2022-11-06T00:11:18.478Z,9.90
2022-11-06T00:12:18.464Z,9.90
2022-11-06T00:13:18.445Z,9.87
2022-11-06T00:14:18.480Z,9.85
2022-11-06T00:15:18.440Z,9.85
2022-11-06T00:16:18.413Z,9.85
2022-11-06T00:17:18.394Z,9.85
2022-11-06T00:18:18.404Z,9.88
2022-11-06T00:19:18.386Z,9.84
2022-11-06T00:20:18.371Z,9.82
2022-11-06T00:21:18.365Z,9.82
2022-11-06T00:22:18.353Z,9.82
2022-11-06T00:23:18.357Z,9.81
2022-11-06T00:24:18.337Z,9.82
2022-11-06T00:25:18.313Z,9.82
2022-11-06T00:26:18.321Z,9.84
2022-11-06T00:27:18.314Z,9.82
2022-11-06T00:28:18.296Z,9.85
2022-11-06T00:29:18.275Z,9.82
2022-11-06T00:30:18.278Z,9.84
2022-11-06T00:31:18.256Z,9.82
2022-11-06T00:32:18.243Z,9.84
2022-11-06T00:33:18.253Z,9.81
2022-11-06T00:34:18.237Z,9.80
2022-11-06T00:35:18.210Z,9.80
2022-11-06T00:36:18.200Z,9.81
2022-11-06T00:37:18.190Z,9.84
2022-11-06T00:38:18.192Z,9.82
2022-11-06T00:39:18.195Z,9.82
2022-11-06T00:40:18.210Z,9.87
2022-11-06T00:41:18.142Z,9.85
2022-11-06T00:42:18.141Z,9.84
2022-11-06T00:43:18.176Z,9.84
2022-11-06T00:44:18.123Z,9.84
2022-11-06T00:45:18.104Z,9.82
2022-11-06T00:46:18.113Z,9.84
2022-11-06T00:47:18.089Z,9.84
2022-11-06T00:48:18.082Z,9.82
2022-11-06T00:49:18.075Z,9.82
2022-11-06T00:50:18.066Z,9.81
2022-11-06T00:51:19.034Z,9.84
2022-11-06T00:52:18.042Z,9.77
2022-11-06T00:53:18.061Z,9.80
2022-11-06T00:54:18.020Z,9.77
2022-11-06T00:55:18.237Z,9.74
2022-11-06T00:56:18.013Z,9.76
2022-11-06T00:57:17.971Z,9.74
2022-11-06T00:58:17.977Z,9.73
2022-11-06T00:59:18.004Z,9.73
2022-11-06T01:00:17.975Z,9.72
2022-11-06T01:01:17.987Z,9.70
2022-11-06T01:02:18.073Z,9.69
2022-11-06T01:03:17.906Z,9.69
2022-11-06T01:04:17.921Z,9.69
2022-11-06T01:05:17.892Z,9.64
2022-11-06T01:06:17.882Z,9.64
2022-11-06T01:07:17.888Z,9.67
2022-11-06T01:08:17.864Z,9.64
2022-11-06T01:09:17.868Z,9.66
2022-11-06T01:10:17.841Z,9.66
2022-11-06T01:11:17.826Z,9.66
2022-11-06T01:12:17.835Z,9.66
2022-11-06T01:13:17.801Z,9.67
2022-11-06T01:14:17.821Z,9.67
2022-11-06T01:15:17.786Z,9.67
2022-11-06T01:16:17.800Z,9.67
2022-11-06T01:17:17.785Z,9.67
2022-11-06T01:18:17.801Z,9.67
2022-11-06T01:19:17.770Z,9.69
2022-11-06T01:20:17.751Z,9.69
2022-11-06T01:21:17.720Z,9.69
2022-11-06T01:22:17.710Z,9.67
2022-11-06T01:23:17.751Z,9.66
2022-11-06T01:24:17.759Z,9.69
2022-11-06T01:25:17.681Z,9.67
2022-11-06T01:26:33.834Z,9.66
2022-11-06T01:27:27.283Z,9.69
2022-11-06T01:28:18.649Z,9.66
2022-11-06T01:29:17.755Z,9.64
2022-11-06T01:30:17.630Z,9.63
2022-11-06T01:31:17.619Z,9.62
2022-11-06T01:32:17.608Z,9.62
2022-11-06T01:33:17.609Z,9.59
2022-11-06T01:34:17.598Z,9.55
2022-11-06T01:35:17.558Z,9.51
2022-11-06T01:36:17.591Z,9.48
2022-11-06T01:37:17.578Z,9.51
2022-11-06T01:38:17.543Z,9.49
2022-11-06T01:39:17.547Z,9.47
2022-11-06T01:40:17.539Z,9.45
2022-11-06T01:41:17.515Z,9.42
2022-11-06T01:42:17.495Z,9.37
2022-11-06T01:43:17.499Z,9.36
2022-11-06T01:44:17.479Z,9.36
2022-11-06T01:45:17.457Z,9.33
2022-11-06T01:46:17.456Z,9.33
2022-11-06T01:47:17.593Z,9.31
2022-11-06T01:48:17.437Z,9.27
2022-11-06T01:49:18.032Z,9.26
2022-11-06T01:50:17.422Z,9.26
2022-11-06T01:51:17.419Z,9.27
2022-11-06T01:52:17.387Z,9.26
2022-11-06T01:53:17.378Z,9.24
2022-11-06T01:54:17.389Z,9.24
2022-11-06T01:55:17.380Z,9.22
2022-11-06T01:56:17.337Z,9.21
2022-11-06T01:57:17.326Z,9.19
2022-11-06T01:58:17.336Z,9.18
2022-11-06T01:59:17.340Z,9.18
2022-11-06T02:00:17.300Z,9.15
2022-11-06T02:01:17.297Z,9.15
2022-11-06T02:02:17.411Z,9.13
2022-11-06T02:03:17.274Z,9.12
2022-11-06T02:04:17.277Z,9.11
2022-11-06T02:05:17.271Z,9.09
2022-11-06T02:06:17.248Z,9.09
2022-11-06T02:07:17.229Z,9.05
2022-11-06T02:08:17.214Z,9.03
2022-11-06T02:09:17.216Z,9.03
2022-11-06T02:10:17.204Z,9.02
2022-11-06T02:11:17.201Z,9.02
2022-11-06T02:12:17.165Z,9.02
2022-11-06T02:13:17.167Z,9.00
2022-11-06T02:14:17.155Z,9.00
2022-11-06T02:15:17.178Z,9.00
2022-11-06T02:16:17.150Z,8.97
2022-11-06T02:17:17.115Z,8.97
2022-11-06T02:18:17.264Z,8.96
2022-11-06T02:19:17.104Z,8.95
2022-11-06T02:20:17.094Z,8.96
2022-11-06T02:21:17.085Z,8.95
2022-11-06T02:22:17.068Z,8.93
2022-11-06T02:23:17.084Z,8.92
2022-11-06T02:24:17.034Z,8.93
2022-11-06T02:25:17.056Z,8.93
2022-11-06T02:26:17.074Z,8.95
2022-11-06T02:27:17.018Z,8.90
2022-11-06T02:28:17.011Z,8.95
2022-11-06T02:29:17.009Z,8.93
2022-11-06T02:30:16.985Z,8.92
2022-11-06T02:31:16.978Z,8.87
2022-11-06T02:32:16.954Z,8.87
2022-11-06T02:33:16.955Z,8.84
2022-11-06T02:34:16.943Z,8.82
2022-11-06T02:35:16.935Z,8.84
2022-11-06T02:36:16.916Z,8.84
2022-11-06T02:37:16.917Z,8.82
2022-11-06T02:38:16.883Z,8.81
2022-11-06T02:39:16.899Z,8.78
2022-11-06T02:40:16.882Z,8.79
2022-11-06T02:41:16.879Z,8.77
2022-11-06T02:42:16.864Z,8.78
2022-11-06T02:43:16.866Z,8.79
2022-11-06T02:44:16.824Z,8.79
2022-11-06T02:45:16.867Z,8.81
2022-11-06T02:46:16.807Z,8.82
2022-11-06T02:47:16.808Z,8.81
2022-11-06T02:48:16.882Z,8.78
2022-11-06T02:49:16.783Z,8.78
2022-11-06T02:50:16.772Z,8.79
2022-11-06T02:51:16.758Z,8.77
2022-11-06T02:52:16.740Z,8.78
2022-11-06T02:53:16.734Z,8.77
2022-11-06T02:54:16.714Z,8.79
2022-11-06T02:55:16.742Z,8.78
2022-11-06T02:56:16.703Z,8.81
2022-11-06T02:57:16.693Z,8.78
2022-11-06T02:58:16.672Z,8.78
2022-11-06T02:59:16.683Z,8.78
2022-11-06T03:00:16.674Z,8.79
2022-11-06T03:01:16.739Z,8.78
2022-11-06T03:02:16.750Z,8.79
2022-11-06T03:03:16.633Z,8.78
2022-11-06T03:04:16.632Z,8.77
2022-11-06T03:05:16.611Z,8.77
2022-11-06T03:06:16.608Z,8.78
2022-11-06T03:07:16.581Z,8.77
2022-11-06T03:08:16.875Z,8.78
2022-11-06T03:09:16.572Z,8.77
2022-11-06T03:10:16.546Z,8.78
2022-11-06T03:11:16.536Z,8.74
2022-11-06T03:12:16.550Z,8.75
2022-11-06T03:13:16.534Z,8.75
2022-11-06T03:14:16.576Z,8.74
2022-11-06T03:15:16.498Z,8.74
2022-11-06T03:16:16.489Z,8.71
2022-11-06T03:17:16.494Z,8.69
2022-11-06T03:18:16.922Z,8.71
2022-11-06T03:19:16.486Z,8.69
2022-11-06T03:20:16.430Z,8.71
2022-11-06T03:21:16.434Z,8.68
2022-11-06T03:22:16.424Z,8.69
2022-11-06T03:23:16.437Z,8.64
2022-11-06T03:24:16.396Z,8.66
2022-11-06T03:25:16.409Z,8.63
2022-11-06T03:26:16.368Z,8.63
2022-11-06T03:27:16.359Z,8.63
2022-11-06T03:28:16.629Z,8.60
2022-11-06T03:29:16.347Z,8.59
2022-11-06T03:30:17.029Z,8.60
2022-11-06T03:31:16.388Z,8.60
2022-11-06T03:32:16.302Z,8.57
2022-11-06T03:33:16.311Z,8.61
2022-11-06T03:34:16.294Z,8.57
2022-11-06T03:35:16.390Z,8.60
2022-11-06T03:36:16.359Z,8.61
2022-11-06T03:37:16.250Z,8.59
2022-11-06T03:38:16.486Z,8.59
2022-11-06T03:39:16.392Z,8.56
2022-11-06T03:40:16.232Z,8.59
2022-11-06T03:41:19.230Z,8.56
2022-11-06T03:42:16.255Z,8.59
2022-11-06T03:43:16.261Z,8.54
2022-11-06T03:44:16.219Z,8.57
2022-11-06T03:45:16.215Z,8.56
2022-11-06T03:46:16.149Z,8.56
2022-11-06T03:47:16.152Z,8.53
2022-11-06T03:48:16.597Z,8.56
2022-11-06T03:49:16.207Z,8.53
2022-11-06T03:50:16.118Z,8.52
2022-11-06T03:51:16.152Z,8.54
2022-11-06T03:52:16.097Z,8.53
2022-11-06T03:53:16.092Z,8.50
2022-11-06T03:54:16.078Z,8.52
2022-11-06T03:55:16.069Z,8.50
2022-11-06T03:56:16.049Z,8.50
2022-11-06T03:57:16.061Z,8.49
2022-11-06T03:58:16.317Z,8.50
2022-11-06T03:59:16.156Z,8.50
2022-11-06T04:00:16.044Z,8.50
2022-11-06T04:01:16.001Z,8.50
2022-11-06T04:02:16.084Z,8.49
2022-11-06T04:03:15.975Z,8.46
2022-11-06T04:04:15.967Z,8.50
2022-11-06T04:05:16.020Z,8.49
2022-11-06T04:06:15.962Z,8.49
2022-11-06T04:07:15.933Z,8.45
2022-11-06T04:08:16.228Z,8.50
2022-11-06T04:09:15.907Z,8.49
2022-11-06T04:10:15.920Z,8.46
2022-11-06T04:11:15.907Z,8.45
2022-11-06T04:12:15.993Z,8.44
2022-11-06T04:13:15.867Z,8.45
2022-11-06T04:14:15.863Z,8.46
2022-11-06T04:15:15.872Z,8.45
2022-11-06T04:16:15.839Z,8.49
2022-11-06T04:17:15.817Z,8.49
2022-11-06T04:18:16.066Z,8.52
2022-11-06T04:19:15.815Z,8.49
2022-11-06T04:20:15.826Z,8.50
2022-11-06T04:21:15.811Z,8.52
2022-11-06T04:22:15.779Z,8.50
2022-11-06T04:23:15.766Z,8.52
2022-11-06T04:24:15.778Z,8.49
2022-11-06T04:25:15.779Z,8.50
2022-11-06T04:26:15.735Z,8.53
2022-11-06T04:27:15.726Z,8.53
2022-11-06T04:28:16.020Z,8.54
2022-11-06T04:29:15.726Z,8.53
2022-11-06T04:30:15.730Z,8.56
2022-11-06T04:31:15.676Z,8.53
2022-11-06T04:32:15.717Z,8.56
2022-11-06T04:33:15.645Z,8.57
2022-11-06T04:34:15.647Z,8.56
2022-11-06T04:35:15.660Z,8.57
2022-11-06T04:36:15.678Z,8.59
2022-11-06T04:37:15.606Z,8.61
2022-11-06T04:38:16.123Z,8.64
2022-11-06T04:39:15.586Z,8.61
2022-11-06T04:40:15.611Z,8.63
2022-11-06T04:41:15.658Z,8.61
2022-11-06T04:42:15.555Z,8.64
2022-11-06T04:43:15.544Z,8.64
2022-11-06T04:44:15.534Z,8.66
2022-11-06T04:45:15.578Z,8.69
2022-11-06T04:46:15.517Z,8.68
2022-11-06T04:47:15.507Z,8.69
2022-11-06T04:48:15.760Z,8.71
2022-11-06T04:49:15.486Z,8.69
2022-11-06T04:50:15.468Z,8.72
2022-11-06T04:51:15.560Z,8.69
2022-11-06T04:52:15.456Z,8.68
2022-11-06T04:53:15.438Z,8.69
2022-11-06T04:54:15.424Z,8.74
2022-11-06T04:55:15.405Z,8.74
2022-11-06T04:56:20.113Z,8.75
2022-11-06T04:57:16.393Z,8.74
2022-11-06T04:58:15.871Z,8.74
2022-11-06T04:59:15.402Z,8.74
2022-11-06T05:00:15.365Z,8.77
2022-11-06T05:01:15.429Z,8.79
2022-11-06T05:02:15.445Z,8.81
2022-11-06T05:03:15.325Z,8.81
2022-11-06T05:04:15.336Z,8.81
2022-11-06T05:05:15.308Z,8.79
2022-11-06T05:06:15.314Z,8.78
2022-11-06T05:07:15.296Z,8.78
2022-11-06T05:08:15.814Z,8.77
2022-11-06T05:09:15.268Z,8.75
2022-11-06T05:10:15.253Z,8.77
2022-11-06T05:11:15.253Z,8.74
2022-11-06T05:12:15.241Z,8.75
2022-11-06T05:13:15.265Z,8.74
2022-11-06T05:14:15.212Z,8.71
2022-11-06T05:15:15.202Z,8.71
2022-11-06T05:16:15.221Z,8.68
2022-11-06T05:17:15.172Z,8.69
2022-11-06T05:18:15.604Z,8.66
2022-11-06T05:19:15.162Z,8.66
2022-11-06T05:20:15.178Z,8.66
2022-11-06T05:21:15.145Z,8.69
2022-11-06T05:22:15.125Z,8.66
2022-11-06T05:23:15.130Z,8.64
2022-11-06T05:24:15.113Z,8.64
2022-11-06T05:25:15.085Z,8.64
2022-11-06T05:26:15.092Z,8.68
2022-11-06T05:27:15.080Z,8.68
2022-11-06T05:28:15.424Z,8.68
2022-11-06T05:29:15.050Z,8.69
2022-11-06T05:30:15.050Z,8.69
2022-11-06T05:31:15.224Z,8.68
2022-11-06T05:32:15.012Z,8.71
2022-11-06T05:33:15.010Z,8.77
2022-11-06T05:34:15.062Z,8.72
2022-11-06T05:35:15.005Z,8.72
2022-11-06T05:36:14.992Z,8.72
2022-11-06T05:37:14.962Z,8.71
2022-11-06T05:38:15.315Z,8.74
2022-11-06T05:39:14.948Z,8.74
2022-11-06T05:40:14.952Z,8.79
2022-11-06T05:41:14.930Z,8.78
2022-11-06T05:42:14.917Z,8.79
2022-11-06T05:43:14.914Z,8.81
2022-11-06T05:44:14.927Z,8.81
2022-11-06T05:45:14.898Z,8.81
2022-11-06T05:46:42.232Z,8.82
2022-11-06T05:47:15.871Z,8.81
2022-11-06T05:48:15.257Z,8.82
2022-11-06T05:49:14.867Z,8.81
2022-11-06T05:50:14.828Z,8.84
2022-11-06T05:51:14.839Z,8.81
2022-11-06T05:52:14.810Z,8.79
2022-11-06T05:53:14.788Z,8.78
2022-11-06T05:54:14.741Z,8.75
2022-11-06T05:55:15.553Z,8.74
2022-11-06T05:56:14.710Z,8.75
2022-11-06T05:57:14.769Z,8.75
2022-11-06T05:58:15.050Z,8.75
2022-11-06T05:59:14.668Z,8.74
2022-11-06T06:00:14.663Z,8.72
2022-11-06T06:01:14.653Z,8.69
2022-11-06T06:02:14.736Z,8.71
2022-11-06T06:03:14.634Z,8.69
2022-11-06T06:04:14.619Z,8.72
2022-11-06T06:05:14.625Z,8.72
2022-11-06T06:06:14.680Z,8.69
2022-11-06T06:07:14.612Z,8.71
2022-11-06T06:08:14.880Z,8.69
2022-11-06T06:09:14.560Z,8.68
2022-11-06T06:10:14.584Z,8.66
2022-11-06T06:11:14.567Z,8.63
2022-11-06T06:12:14.552Z,8.64
2022-11-06T06:13:14.529Z,8.64
2022-11-06T06:14:14.527Z,8.64
2022-11-06T06:15:14.509Z,8.63
2022-11-06T06:16:14.497Z,8.61
2022-11-06T06:17:14.474Z,8.63
2022-11-06T06:18:14.785Z,8.61
2022-11-06T06:19:14.448Z,8.59
2022-11-06T06:20:14.459Z,8.61
2022-11-06T06:21:14.452Z,8.63
2022-11-06T06:22:14.436Z,8.64
2022-11-06T06:23:14.418Z,8.61
2022-11-06T06:24:14.540Z,8.59
2022-11-06T06:25:22.476Z,8.59
2022-11-06T06:26:15.463Z,8.59
2022-11-06T06:27:14.408Z,8.56
2022-11-06T06:28:14.639Z,8.56
2022-11-06T06:29:14.357Z,8.56
2022-11-06T06:30:14.341Z,8.54
2022-11-06T06:31:14.337Z,8.53
2022-11-06T06:32:14.322Z,8.54
2022-11-06T06:33:14.319Z,8.54
2022-11-06T06:34:14.308Z,8.56
2022-11-06T06:35:14.280Z,8.56
2022-11-06T06:36:14.297Z,8.56
2022-11-06T06:37:17.679Z,8.57
2022-11-06T06:38:15.555Z,8.56
2022-11-06T06:39:14.284Z,8.56
2022-11-06T06:40:14.227Z,8.56
2022-11-06T06:41:14.234Z,8.54
2022-11-06T06:42:14.272Z,8.57
2022-11-06T06:43:14.193Z,8.54
2022-11-06T06:44:14.199Z,8.57
2022-11-06T06:45:14.166Z,8.56
2022-11-06T06:46:14.213Z,8.52
2022-11-06T06:47:14.168Z,8.53
2022-11-06T06:48:14.565Z,8.54
2022-11-06T06:49:14.155Z,8.53
2022-11-06T06:50:14.177Z,8.56
2022-11-06T06:51:14.242Z,8.56
2022-11-06T06:52:14.140Z,8.56
2022-11-06T06:53:14.086Z,8.57
2022-11-06T06:54:14.088Z,8.57
2022-11-06T06:55:14.065Z,8.56
2022-11-06T06:56:14.086Z,8.59
2022-11-06T06:57:14.046Z,8.57
2022-11-06T06:58:17.853Z,8.59
2022-11-06T06:59:14.025Z,8.56
2022-11-06T07:00:14.023Z,8.57
2022-11-06T07:01:14.124Z,8.59
2022-11-06T07:02:14.202Z,8.56
2022-11-06T07:03:14.006Z,8.56
2022-11-06T07:04:14.071Z,8.59
2022-11-06T07:05:13.975Z,8.60
2022-11-06T07:06:13.968Z,8.61
2022-11-06T07:07:13.943Z,8.63
2022-11-06T07:08:14.151Z,8.63
2022-11-06T07:09:13.941Z,8.63
2022-11-06T07:10:13.962Z,8.64
2022-11-06T07:11:13.922Z,8.64
2022-11-06T07:12:13.896Z,8.64
2022-11-06T07:13:14.333Z,8.61
2022-11-06T07:14:13.887Z,8.66
2022-11-06T07:15:13.962Z,8.61
2022-11-06T07:16:14.341Z,8.66
2022-11-06T07:17:13.864Z,8.66
2022-11-06T07:18:14.169Z,8.68
2022-11-06T07:19:13.874Z,8.71
2022-11-06T07:20:13.856Z,8.72
2022-11-06T07:21:13.814Z,8.75
2022-11-06T07:22:13.798Z,8.72
2022-11-06T07:23:13.767Z,8.72
2022-11-06T07:24:13.761Z,8.74
2022-11-06T07:25:13.749Z,8.77
2022-11-06T07:26:13.755Z,8.77
2022-11-06T07:27:13.775Z,8.79
2022-11-06T07:28:13.880Z,8.81
2022-11-06T07:29:13.705Z,8.82
2022-11-06T07:30:13.698Z,8.86
2022-11-06T07:31:13.695Z,8.86
2022-11-06T07:32:13.726Z,8.86
2022-11-06T07:33:13.666Z,8.89
2022-11-06T07:34:13.660Z,8.90
2022-11-06T07:35:13.672Z,8.92
2022-11-06T07:36:13.672Z,8.95
2022-11-06T07:37:13.644Z,8.95
2022-11-06T07:38:13.894Z,8.97
2022-11-06T07:39:13.613Z,8.97
2022-11-06T07:40:13.593Z,9.02
2022-11-06T07:41:13.613Z,9.03
2022-11-06T07:42:13.575Z,9.08
2022-11-06T07:43:13.560Z,9.08
2022-11-06T07:44:13.544Z,9.08
2022-11-06T07:45:13.534Z,9.13
2022-11-06T07:46:13.526Z,9.15
2022-11-06T07:47:13.765Z,9.18
2022-11-06T07:48:13.814Z,9.21
2022-11-06T07:49:13.497Z,9.22
2022-11-06T07:50:13.482Z,9.22
2022-11-06T07:51:13.581Z,9.24
2022-11-06T07:52:13.469Z,9.29
2022-11-06T07:53:13.911Z,9.30
2022-11-06T07:54:13.465Z,9.34
2022-11-06T07:55:13.434Z,9.40
2022-11-06T07:56:13.416Z,9.42
2022-11-06T07:57:13.441Z,9.45
2022-11-06T07:58:13.644Z,9.48
2022-11-06T07:59:13.383Z,9.51
2022-11-06T08:00:13.376Z,9.52
2022-11-06T08:01:17.952Z,9.56
2022-11-06T08:02:14.528Z,9.59
2022-11-06T08:03:13.341Z,9.62
2022-11-06T08:04:13.333Z,9.67
2022-11-06T08:05:13.347Z,9.73
2022-11-06T08:06:13.785Z,9.80
2022-11-06T08:07:13.371Z,9.84
2022-11-06T08:08:13.422Z,9.87
2022-11-06T08:09:13.273Z,9.90
2022-11-06T08:10:13.289Z,9.94
2022-11-06T08:11:13.255Z,10.02
2022-11-06T08:12:13.247Z,10.07
2022-11-06T08:13:13.298Z,10.13
2022-11-06T08:14:13.229Z,10.17
2022-11-06T08:15:13.246Z,10.20
2022-11-06T08:16:13.195Z,10.21
2022-11-06T08:17:13.278Z,10.27
2022-11-06T08:18:13.615Z,10.30
2022-11-06T08:19:13.217Z,10.36
2022-11-06T08:20:13.152Z,10.41
2022-11-06T08:21:13.158Z,10.45
2022-11-06T08:22:13.147Z,10.51
2022-11-06T08:23:13.155Z,10.53
2022-11-06T08:24:16.429Z,10.58
2022-11-06T08:25:14.110Z,10.64
2022-11-06T08:26:13.081Z,10.65
2022-11-06T08:27:13.093Z,10.69
2022-11-06T08:28:13.332Z,10.72
2022-11-06T08:29:13.092Z,10.76
2022-11-06T08:30:13.091Z,10.82
2022-11-06T08:31:13.059Z,10.83
2022-11-06T08:32:13.041Z,10.82
2022-11-06T08:33:13.018Z,10.84
2022-11-06T08:34:13.018Z,10.94
2022-11-06T08:35:13.020Z,10.95
2022-11-06T08:36:13.081Z,11.02
2022-11-06T08:37:13.031Z,11.07
2022-11-06T08:38:13.272Z,11.07
2022-11-06T08:39:12.951Z,11.05
2022-11-06T08:40:12.941Z,11.10
2022-11-06T08:41:12.938Z,11.15
2022-11-06T08:42:12.923Z,11.20
2022-11-06T08:43:13.352Z,11.23
2022-11-06T08:44:12.900Z,11.30
2022-11-06T08:45:12.952Z,11.31
2022-11-06T08:46:12.928Z,11.33
2022-11-06T08:47:12.892Z,11.35
2022-11-06T08:48:12.872Z,11.43
2022-11-06T08:49:12.876Z,11.44
2022-11-06T08:50:12.845Z,11.49
2022-11-06T08:51:12.842Z,11.52
2022-11-06T08:52:12.872Z,11.53
2022-11-06T08:53:13.317Z,11.55
2022-11-06T08:54:12.900Z,11.63
2022-11-06T08:55:12.795Z,11.65
2022-11-06T08:56:12.840Z,11.70
2022-11-06T08:57:12.775Z,11.73
2022-11-06T08:58:12.757Z,11.77
2022-11-06T08:59:12.750Z,11.76
2022-11-06T09:00:12.734Z,11.77
2022-11-06T09:01:12.775Z,11.80
2022-11-06T09:02:12.860Z,11.81
2022-11-06T09:03:13.014Z,11.86
2022-11-06T09:04:12.690Z,11.91
2022-11-06T09:05:12.710Z,11.95
2022-11-06T09:06:12.672Z,11.96
2022-11-06T09:07:12.697Z,12.00
2022-11-06T09:08:12.671Z,12.03
2022-11-06T09:09:12.673Z,12.05
2022-11-06T09:10:12.633Z,12.08
2022-11-06T09:11:12.632Z,12.12
2022-11-06T09:12:12.608Z,12.23
2022-11-06T09:13:13.158Z,12.28
2022-11-06T09:14:12.585Z,12.35
2022-11-06T09:15:12.604Z,12.43
2022-11-06T09:16:15.808Z,12.48
2022-11-06T09:17:12.704Z,12.58
2022-11-06T09:18:12.579Z,12.72
2022-11-06T09:19:12.546Z,12.91
2022-11-06T09:20:12.859Z,13.12
2022-11-06T09:21:12.560Z,13.37
2022-11-06T09:22:12.496Z,13.61
2022-11-06T09:23:12.929Z,13.80
2022-11-06T09:24:12.536Z,14.01
2022-11-06T09:25:12.499Z,14.18
2022-11-06T09:26:12.500Z,14.38
2022-11-06T09:27:12.490Z,14.55
2022-11-06T09:28:12.477Z,14.74
2022-11-06T09:29:12.560Z,14.92
2022-11-06T09:30:12.458Z,14.73
2022-11-06T09:31:12.466Z,14.78
2022-11-06T09:32:12.462Z,15.05
2022-11-06T09:33:13.883Z,15.15
2022-11-06T09:34:12.447Z,15.02
2022-11-06T09:35:12.430Z,14.86
2022-11-06T09:36:12.392Z,14.78
2022-11-06T09:37:12.423Z,14.63
2022-11-06T09:38:12.390Z,14.51
2022-11-06T09:39:12.379Z,14.40
2022-11-06T09:40:12.472Z,14.19
2022-11-06T09:41:12.332Z,13.95
2022-11-06T09:42:12.337Z,13.91
2022-11-06T09:43:12.657Z,13.78
2022-11-06T09:44:12.309Z,13.75
2022-11-06T09:45:12.289Z,13.73
2022-11-06T09:46:13.730Z,13.79
2022-11-06T09:47:12.270Z,13.83
2022-11-06T09:48:12.288Z,13.82
2022-11-06T09:49:12.267Z,13.89
2022-11-06T09:50:12.289Z,13.94
2022-11-06T09:51:12.233Z,14.00
2022-11-06T09:52:12.213Z,13.97
2022-11-06T09:53:12.236Z,14.03
2022-11-06T09:54:12.210Z,14.12
2022-11-06T09:55:12.204Z,14.15
2022-11-06T09:56:12.180Z,14.18
2022-11-06T09:57:12.169Z,14.16
2022-11-06T09:58:12.705Z,14.23
2022-11-06T09:59:12.159Z,14.30
2022-11-06T10:00:12.153Z,14.34
2022-11-06T10:01:17.547Z,14.38
2022-11-06T10:02:13.243Z,14.41
2022-11-06T10:03:12.591Z,14.36
2022-11-06T10:04:12.099Z,14.38
2022-11-06T10:05:12.128Z,14.36
2022-11-06T10:06:12.082Z,14.40
2022-11-06T10:07:12.058Z,14.41
2022-11-06T10:08:12.563Z,14.44
2022-11-06T10:09:12.049Z,14.43
2022-11-06T10:10:12.020Z,14.44
2022-11-06T10:11:12.032Z,14.40
2022-11-06T10:12:12.068Z,14.38
2022-11-06T10:13:17.130Z,14.40
2022-11-06T10:14:13.428Z,14.44
2022-11-06T10:15:11.979Z,14.48
2022-11-06T10:16:11.992Z,14.45
2022-11-06T10:17:11.993Z,14.51
2022-11-06T10:18:12.389Z,14.52
2022-11-06T10:19:12.600Z,14.53
2022-11-06T10:20:11.884Z,14.53
2022-11-06T10:21:11.943Z,14.53
2022-11-06T10:22:11.878Z,14.52
2022-11-06T10:23:11.938Z,14.52
2022-11-06T10:24:11.944Z,14.56
2022-11-06T10:25:11.828Z,14.59
2022-11-06T10:26:12.044Z,14.63
2022-11-06T10:27:11.859Z,14.68
2022-11-06T10:28:12.398Z,14.68
2022-11-06T10:29:11.854Z,14.67
2022-11-06T10:30:11.848Z,14.66
2022-11-06T10:31:11.841Z,14.71
2022-11-06T10:32:11.779Z,14.74
2022-11-06T10:33:11.930Z,14.78
2022-11-06T10:34:11.759Z,14.87
2022-11-06T10:35:11.798Z,14.97
2022-11-06T10:36:11.825Z,15.07
2022-11-06T10:37:11.932Z,15.18
2022-11-06T10:38:12.161Z,15.27
2022-11-06T10:39:11.808Z,15.37
2022-11-06T10:40:11.748Z,15.45
2022-11-06T10:41:11.698Z,15.44
2022-11-06T10:42:11.744Z,15.52
2022-11-06T10:43:11.711Z,15.60
2022-11-06T10:44:11.714Z,15.73
2022-11-06T10:45:11.657Z,15.87
2022-11-06T10:46:11.759Z,15.91
2022-11-06T10:47:12.023Z,15.92
2022-11-06T10:48:12.202Z,15.88
2022-11-06T10:49:11.660Z,15.85
2022-11-06T10:50:11.620Z,15.81
2022-11-06T10:51:11.838Z,15.78
2022-11-06T10:52:11.786Z,15.73
2022-11-06T10:53:11.551Z,15.67
2022-11-06T10:54:11.554Z,15.63
2022-11-06T10:55:11.680Z,15.60
2022-11-06T10:56:12.945Z,15.50
2022-11-06T10:57:11.511Z,15.50
2022-11-06T10:58:11.902Z,15.51
2022-11-06T10:59:11.479Z,15.60
2022-11-06T11:00:11.454Z,15.59
2022-11-06T11:01:11.578Z,15.60
2022-11-06T11:02:11.447Z,15.65
2022-11-06T11:03:11.450Z,15.69
2022-11-06T11:04:11.447Z,15.76
2022-11-06T11:05:11.399Z,15.80
2022-11-06T11:06:11.406Z,15.78
2022-11-06T11:07:11.399Z,15.83
2022-11-06T11:08:11.644Z,15.91
2022-11-06T11:09:11.375Z,15.98
2022-11-06T11:10:11.451Z,16.00
2022-11-06T11:11:11.432Z,16.02
2022-11-06T11:12:11.310Z,16.09
2022-11-06T11:13:11.454Z,16.12
2022-11-06T11:14:11.309Z,16.09
2022-11-06T11:15:11.290Z,16.13
2022-11-06T11:16:11.385Z,16.40
2022-11-06T11:17:11.668Z,16.58
2022-11-06T11:18:11.547Z,16.76
2022-11-06T11:19:11.379Z,16.84
2022-11-06T11:20:11.239Z,16.84
2022-11-06T11:21:11.229Z,16.82
2022-11-06T11:22:11.225Z,16.69
2022-11-06T11:23:11.301Z,16.49
2022-11-06T11:24:11.224Z,16.37
2022-11-06T11:25:11.172Z,16.21
2022-11-06T11:26:11.192Z,16.22
2022-11-06T11:27:11.316Z,16.13
2022-11-06T11:28:11.189Z,16.00
2022-11-06T11:29:11.204Z,15.83
2022-11-06T11:30:11.137Z,15.73
2022-11-06T11:31:11.150Z,15.60
2022-11-06T11:32:11.102Z,15.54
2022-11-06T11:33:11.094Z,15.67
2022-11-06T11:34:11.127Z,15.69
2022-11-06T11:35:11.174Z,15.63
2022-11-06T11:36:11.084Z,15.60
2022-11-06T11:37:11.055Z,15.51
2022-11-06T11:38:11.457Z,15.51
2022-11-06T11:39:11.043Z,15.55
2022-11-06T11:40:13.452Z,15.69
2022-11-06T11:41:11.072Z,15.81
2022-11-06T11:42:11.004Z,15.94
2022-11-06T11:43:11.006Z,16.05
2022-11-06T11:44:11.002Z,16.12
2022-11-06T11:45:10.991Z,16.17
2022-11-06T11:46:11.060Z,16.26
2022-11-06T11:47:10.934Z,16.31
2022-11-06T11:48:11.168Z,16.26
2022-11-06T11:49:10.922Z,16.09
2022-11-06T11:50:10.902Z,15.99
2022-11-06T11:51:10.924Z,15.84
2022-11-06T11:52:11.198Z,15.72
2022-11-06T11:53:10.924Z,15.59
2022-11-06T11:54:11.092Z,15.54
2022-11-06T11:55:10.853Z,15.59
2022-11-06T11:56:10.973Z,15.67
2022-11-06T11:57:10.853Z,15.75
2022-11-06T11:58:11.056Z,15.87
2022-11-06T11:59:10.902Z,15.98
2022-11-06T12:00:10.935Z,15.99
2022-11-06T12:01:10.833Z,16.02
2022-11-06T12:02:11.000Z,16.03
2022-11-06T12:03:10.872Z,16.06
2022-11-06T12:04:10.780Z,16.13
2022-11-06T12:05:10.745Z,16.13
2022-11-06T12:06:10.734Z,16.24
2022-11-06T12:07:10.731Z,16.21
2022-11-06T12:08:10.939Z,16.05
2022-11-06T12:09:10.693Z,16.02
2022-11-06T12:10:11.040Z,15.99
2022-11-06T12:11:10.770Z,15.92
2022-11-06T12:12:10.736Z,15.87
2022-11-06T12:13:10.687Z,15.87
2022-11-06T12:14:10.737Z,15.85
2022-11-06T12:15:10.632Z,15.84
2022-11-06T12:16:10.636Z,15.84
2022-11-06T12:17:10.715Z,15.78
2022-11-06T12:18:10.838Z,15.80
2022-11-06T12:19:10.592Z,15.76
2022-11-06T12:20:10.685Z,15.70
2022-11-06T12:21:10.595Z,15.70
2022-11-06T12:22:10.572Z,15.67
2022-11-06T12:23:10.559Z,15.70
2022-11-06T12:24:10.576Z,15.67
2022-11-06T12:25:10.703Z,15.73
2022-11-06T12:26:10.523Z,15.76
2022-11-06T12:27:10.633Z,15.78
2022-11-06T12:28:10.677Z,15.85
2022-11-06T12:29:10.798Z,15.96
2022-11-06T12:30:10.472Z,16.25
2022-11-06T12:31:10.503Z,16.10
2022-11-06T12:32:10.561Z,16.05
2022-11-06T12:33:10.436Z,16.13
2022-11-06T12:34:16.042Z,16.05
2022-11-06T12:35:11.421Z,15.99
2022-11-06T12:36:10.417Z,16.00
2022-11-06T12:37:10.485Z,16.00
2022-11-06T12:38:10.507Z,16.00
2022-11-06T12:39:10.451Z,16.02
2022-11-06T12:40:10.364Z,16.02
2022-11-06T12:41:10.341Z,16.05
2022-11-06T12:42:10.332Z,16.02
2022-11-06T12:43:10.314Z,15.94
2022-11-06T12:44:10.347Z,15.90
2022-11-06T12:45:10.459Z,15.85
2022-11-06T12:46:10.293Z,15.80
2022-11-06T12:47:10.301Z,15.76
2022-11-06T12:48:10.296Z,15.73
2022-11-06T12:49:10.273Z,15.69
2022-11-06T12:50:10.244Z,15.65
2022-11-06T12:51:10.234Z,15.65
2022-11-06T12:52:10.418Z,16.00
2022-11-06T12:53:10.344Z,17.35
2022-11-06T12:54:10.223Z,18.42
2022-11-06T12:55:10.192Z,19.22
2022-11-06T12:56:10.188Z,19.52
2022-11-06T12:57:10.204Z,19.27
2022-11-06T12:58:10.170Z,18.91
2022-11-06T12:59:10.423Z,19.45
2022-11-06T13:00:10.223Z,20.08
2022-11-06T13:01:10.182Z,19.57
2022-11-06T13:02:10.440Z,18.81
2022-11-06T13:03:10.504Z,18.27
2022-11-06T13:04:10.114Z,17.91
2022-11-06T13:05:10.485Z,17.54
2022-11-06T13:06:13.152Z,17.37
2022-11-06T13:07:10.144Z,17.27
2022-11-06T13:08:10.285Z,17.17